createdAt,value
2018-11-21T00:00:05.095Z,18.04
2018-11-21T00:01:04.880Z,18.03
2018-11-21T00:02:04.942Z,18.04
2018-11-21T00:03:04.767Z,18.04
2018-11-21T00:04:05.013Z,18.02
2018-11-21T00:05:04.780Z,18.04
2018-11-21T00:06:04.774Z,18.03
2018-11-21T00:07:05.026Z,18.01
2018-11-21T00:08:04.927Z,18.01
2018-11-21T00:09:05.219Z,18.02
2018-11-21T00:10:05.025Z,18.01
2018-11-21T00:11:05.002Z,18
2018-11-21T00:12:05.222Z,18
2018-11-21T00:13:05.329Z,18.01
2018-11-21T00:14:04.718Z,17.99
2018-11-21T00:15:04.816Z,17.99
2018-11-21T00:16:05.180Z,17.98
2018-11-21T00:17:04.916Z,17.99
2018-11-21T00:18:05.036Z,17.99
2018-11-21T00:19:04.882Z,17.99
2018-11-21T00:20:05.074Z,18
2018-11-21T00:21:04.804Z,17.99
2018-11-21T00:22:05.028Z,18
2018-11-21T00:23:04.984Z,17.96
2018-11-21T00:24:05.353Z,17.97
2018-11-21T00:25:05.137Z,17.96
2018-11-21T00:26:05.348Z,17.97
2018-11-21T00:27:04.943Z,17.97
2018-11-21T00:28:04.948Z,17.96
2018-11-21T00:29:04.931Z,17.95
2018-11-21T00:30:05.036Z,17.94
2018-11-21T00:31:05.166Z,17.94
2018-11-21T00:32:05.051Z,17.94
2018-11-21T00:33:04.942Z,17.96
2018-11-21T00:34:05.391Z,17.97
2018-11-21T00:35:04.807Z,17.94
2018-11-21T00:36:04.990Z,17.94
2018-11-21T00:37:05.300Z,17.93
2018-11-21T00:38:05.521Z,17.94
2018-11-21T00:39:04.796Z,17.94
2018-11-21T00:40:04.925Z,17.91
2018-11-21T00:41:04.981Z,17.93
2018-11-21T00:42:04.751Z,17.93
2018-11-21T00:43:05.359Z,17.92
2018-11-21T00:44:05.008Z,17.92
2018-11-21T00:45:05.527Z,17.91
2018-11-21T00:46:05.058Z,17.91
2018-11-21T00:47:05.263Z,17.89
2018-11-21T00:48:04.865Z,17.94
2018-11-21T00:49:05.034Z,17.9
2018-11-21T00:50:04.952Z,17.91
2018-11-21T00:51:05.208Z,17.9
2018-11-21T00:52:04.954Z,17.91
2018-11-21T00:53:04.919Z,17.92
2018-11-21T00:54:04.981Z,17.9
2018-11-21T00:55:04.836Z,17.9
2018-11-21T00:56:04.916Z,17.9
2018-11-21T00:57:04.736Z,17.91
2018-11-21T00:58:04.928Z,17.91
2018-11-21T00:59:04.998Z,17.89
2018-11-21T01:00:04.791Z,17.88
2018-11-21T01:01:05.068Z,17.87
2018-11-21T01:02:05.128Z,17.9
2018-11-21T01:03:05.167Z,17.92
2018-11-21T01:04:04.794Z,17.88
2018-11-21T01:05:05.019Z,17.88
2018-11-21T01:06:05.139Z,17.9
2018-11-21T01:07:04.905Z,17.88
2018-11-21T01:08:05.218Z,17.88
2018-11-21T01:09:04.843Z,17.88
2018-11-21T01:10:04.940Z,17.91
2018-11-21T01:11:05.023Z,17.89
2018-11-21T01:12:05.038Z,17.9
2018-11-21T01:13:04.889Z,17.88
2018-11-21T01:14:04.875Z,17.87
2018-11-21T01:15:04.804Z,17.87
2018-11-21T01:16:04.974Z,17.85
2018-11-21T01:17:04.759Z,17.84
2018-11-21T01:18:04.901Z,17.84
2018-11-21T01:19:05.195Z,17.84
2018-11-21T01:20:05.268Z,17.84
2018-11-21T01:21:05.025Z,17.83
2018-11-21T01:22:04.933Z,17.83
2018-11-21T01:23:05.235Z,17.84
2018-11-21T01:24:04.811Z,17.85
2018-11-21T01:25:04.771Z,17.85
2018-11-21T01:26:05.288Z,17.85
2018-11-21T01:27:05.035Z,17.84
2018-11-21T01:28:04.996Z,17.84
2018-11-21T01:29:04.966Z,17.85
2018-11-21T01:30:04.933Z,17.84
2018-11-21T01:31:04.770Z,17.83
2018-11-21T01:32:04.971Z,17.82
2018-11-21T01:33:09.551Z,17.82
2018-11-21T01:34:04.844Z,17.81
2018-11-21T01:35:04.944Z,17.83
2018-11-21T01:36:05.006Z,17.83
2018-11-21T01:37:04.953Z,17.81
2018-11-21T01:38:04.915Z,17.83
2018-11-21T01:39:04.981Z,17.81
2018-11-21T01:40:05.233Z,17.82
2018-11-21T01:41:04.880Z,17.84
2018-11-21T01:42:04.939Z,17.82
2018-11-21T01:43:04.800Z,17.8
2018-11-21T01:44:04.976Z,17.8
2018-11-21T01:45:05.095Z,17.79
2018-11-21T01:46:04.889Z,17.79
2018-11-21T01:47:04.797Z,17.79
2018-11-21T01:48:04.877Z,17.78
2018-11-21T01:49:05.052Z,17.79
2018-11-21T01:50:04.854Z,17.8
2018-11-21T01:51:04.958Z,17.8
2018-11-21T01:52:05.264Z,17.8
2018-11-21T01:53:05.026Z,17.82
2018-11-21T01:54:05.027Z,17.8
2018-11-21T01:55:05.223Z,17.8
2018-11-21T01:56:04.965Z,17.79
2018-11-21T01:57:04.929Z,17.8
2018-11-21T01:58:04.996Z,17.8
2018-11-21T01:59:05.168Z,17.8
2018-11-21T02:00:05.274Z,17.79
2018-11-21T02:01:05.294Z,17.78
2018-11-21T02:02:05.014Z,17.79
2018-11-21T02:03:05.299Z,17.77
2018-11-21T02:04:05.152Z,17.77
2018-11-21T02:05:05.678Z,17.76
2018-11-21T02:06:04.989Z,17.76
2018-11-21T02:07:05.138Z,17.78
2018-11-21T02:08:04.995Z,17.76
2018-11-21T02:09:04.905Z,17.75
2018-11-21T02:10:04.815Z,17.76
2018-11-21T02:11:05.428Z,17.76
2018-11-21T02:12:05.671Z,17.74
2018-11-21T02:13:04.903Z,17.78
2018-11-21T02:14:04.969Z,17.74
2018-11-21T02:15:04.816Z,17.75
2018-11-21T02:16:04.910Z,17.74
2018-11-21T02:17:05.070Z,17.74
2018-11-21T02:18:04.901Z,17.76
2018-11-21T02:19:04.858Z,17.75
2018-11-21T02:20:04.987Z,17.75
2018-11-21T02:21:04.835Z,17.75
2018-11-21T02:22:05.140Z,17.75
2018-11-21T02:23:04.934Z,17.76
2018-11-21T02:24:05.036Z,17.76
2018-11-21T02:25:05.087Z,17.76
2018-11-21T02:26:04.796Z,17.75
2018-11-21T02:27:04.795Z,17.75
2018-11-21T02:28:05.075Z,17.74
2018-11-21T02:29:04.899Z,17.75
2018-11-21T02:30:04.824Z,17.76
2018-11-21T02:31:04.922Z,17.77
2018-11-21T02:32:05.007Z,17.75
2018-11-21T02:33:05.110Z,17.75
2018-11-21T02:34:05.312Z,17.75
2018-11-21T02:35:05.253Z,17.74
2018-11-21T02:36:04.899Z,17.74
2018-11-21T02:37:04.792Z,17.73
2018-11-21T02:38:04.900Z,17.72
2018-11-21T02:39:04.969Z,17.74
2018-11-21T02:40:05.163Z,17.72
2018-11-21T02:41:05.056Z,17.72
2018-11-21T02:42:04.848Z,17.7
2018-11-21T02:43:04.974Z,17.71
2018-11-21T02:44:04.950Z,17.71
2018-11-21T02:45:05.174Z,17.7
2018-11-21T02:46:04.808Z,17.7
2018-11-21T02:47:04.994Z,17.69
2018-11-21T02:48:05.007Z,17.71
2018-11-21T02:49:05.348Z,17.74
2018-11-21T02:50:04.767Z,17.73
2018-11-21T02:51:04.875Z,17.72
2018-11-21T02:52:05.370Z,17.74
2018-11-21T02:53:04.815Z,17.73
2018-11-21T02:54:04.950Z,17.74
2018-11-21T02:55:04.913Z,17.74
2018-11-21T02:56:04.861Z,17.74
2018-11-21T02:57:04.750Z,17.74
2018-11-21T02:58:05.113Z,17.72
2018-11-21T02:59:04.702Z,17.73
2018-11-21T03:00:05.084Z,17.72
2018-11-21T03:01:04.951Z,17.71
2018-11-21T03:02:04.752Z,17.71
2018-11-21T03:03:05.311Z,17.71
2018-11-21T03:04:04.841Z,17.71
2018-11-21T03:05:04.826Z,17.71
2018-11-21T03:06:04.762Z,17.71
2018-11-21T03:07:05.127Z,17.71
2018-11-21T03:08:04.837Z,17.72
2018-11-21T03:09:04.748Z,17.72
2018-11-21T03:10:05.081Z,17.72
2018-11-21T03:11:04.923Z,17.69
2018-11-21T03:12:04.946Z,17.71
2018-11-21T03:13:04.777Z,17.71
2018-11-21T03:14:04.779Z,17.7
2018-11-21T03:15:04.788Z,17.7
2018-11-21T03:16:05.630Z,17.7
2018-11-21T03:17:04.764Z,17.7
2018-11-21T03:18:05.008Z,17.68
2018-11-21T03:19:04.774Z,17.68
2018-11-21T03:20:04.830Z,17.7
2018-11-21T03:21:04.982Z,17.68
2018-11-21T03:22:04.848Z,17.68
2018-11-21T03:23:04.887Z,17.68
2018-11-21T03:24:04.704Z,17.7
2018-11-21T03:25:04.770Z,17.69
2018-11-21T03:26:04.759Z,17.68
2018-11-21T03:27:04.863Z,17.67
2018-11-21T03:28:04.726Z,17.67
2018-11-21T03:29:04.874Z,17.67
2018-11-21T03:30:04.911Z,17.68
2018-11-21T03:31:04.875Z,17.69
2018-11-21T03:32:04.934Z,17.67
2018-11-21T03:33:04.700Z,17.67
2018-11-21T03:34:04.845Z,17.66
2018-11-21T03:35:05.142Z,17.66
2018-11-21T03:36:05.159Z,17.65
2018-11-21T03:37:05.359Z,17.66
2018-11-21T03:38:05.255Z,17.69
2018-11-21T03:39:05.170Z,17.66
2018-11-21T03:40:04.813Z,17.66
2018-11-21T03:41:05.169Z,17.66
2018-11-21T03:42:04.778Z,17.65
2018-11-21T03:43:05.215Z,17.64
2018-11-21T03:44:04.790Z,17.64
2018-11-21T03:45:05.227Z,17.66
2018-11-21T03:46:04.718Z,17.68
2018-11-21T03:47:04.949Z,17.67
2018-11-21T03:48:04.808Z,17.66
2018-11-21T03:49:05.039Z,17.66
2018-11-21T03:50:05.375Z,17.67
2018-11-21T03:51:05.261Z,17.65
2018-11-21T03:52:05.168Z,17.66
2018-11-21T03:53:04.808Z,17.64
2018-11-21T03:54:05.345Z,17.65
2018-11-21T03:55:05.109Z,17.64
2018-11-21T03:56:04.895Z,17.67
2018-11-21T03:57:05.180Z,17.64
2018-11-21T03:58:04.744Z,17.63
2018-11-21T03:59:04.813Z,17.63
2018-11-21T04:00:05.003Z,17.66
2018-11-21T04:01:04.932Z,17.63
2018-11-21T04:02:04.911Z,17.64
2018-11-21T04:03:04.912Z,17.65
2018-11-21T04:04:04.895Z,17.63
2018-11-21T04:05:04.882Z,17.63
2018-11-21T04:06:05.153Z,17.63
2018-11-21T04:07:04.859Z,17.64
2018-11-21T04:08:04.707Z,17.62
2018-11-21T04:09:04.764Z,17.62
2018-11-21T04:10:04.907Z,17.64
2018-11-21T04:11:05.051Z,17.64
2018-11-21T04:12:05.106Z,17.64
2018-11-21T04:13:05.000Z,17.62
2018-11-21T04:14:05.088Z,17.63
2018-11-21T04:15:05.014Z,17.63
2018-11-21T04:16:04.970Z,17.63
2018-11-21T04:17:04.829Z,17.64
2018-11-21T04:18:05.137Z,17.63
2018-11-21T04:19:04.676Z,17.63
2018-11-21T04:20:04.741Z,17.62
2018-11-21T04:21:04.849Z,17.64
2018-11-21T04:22:04.760Z,17.65
2018-11-21T04:23:05.153Z,17.65
2018-11-21T04:24:04.842Z,17.65
2018-11-21T04:25:05.006Z,17.62
2018-11-21T04:26:04.960Z,17.63
2018-11-21T04:27:05.207Z,17.63
2018-11-21T04:28:04.770Z,17.62
2018-11-21T04:29:04.889Z,17.62
2018-11-21T04:30:05.028Z,17.64
2018-11-21T04:31:05.117Z,17.61
2018-11-21T04:32:05.123Z,17.62
2018-11-21T04:33:04.704Z,17.61
2018-11-21T04:34:04.969Z,17.61
2018-11-21T04:35:04.734Z,17.59
2018-11-21T04:36:05.060Z,17.6
2018-11-21T04:37:05.039Z,17.59
2018-11-21T04:38:04.935Z,17.6
2018-11-21T04:39:05.023Z,17.59
2018-11-21T04:40:04.994Z,17.6
2018-11-21T04:41:05.136Z,17.6
2018-11-21T04:42:04.833Z,17.6
2018-11-21T04:43:04.961Z,17.6
2018-11-21T04:44:05.048Z,17.6
2018-11-21T04:45:04.925Z,17.6
2018-11-21T04:46:04.924Z,17.6
2018-11-21T04:47:04.805Z,17.59
2018-11-21T04:48:04.881Z,17.59
2018-11-21T04:49:04.681Z,17.59
2018-11-21T04:50:04.814Z,17.6
2018-11-21T04:51:04.795Z,17.61
2018-11-21T04:52:04.922Z,17.61
2018-11-21T04:53:05.058Z,17.62
2018-11-21T04:54:04.760Z,17.62
2018-11-21T04:55:04.977Z,17.64
2018-11-21T04:56:04.714Z,17.65
2018-11-21T04:57:04.891Z,17.66
2018-11-21T04:58:04.715Z,17.67
2018-11-21T04:59:04.988Z,17.68
2018-11-21T05:00:04.716Z,17.7
2018-11-21T05:01:04.878Z,17.71
2018-11-21T05:02:04.664Z,17.71
2018-11-21T05:03:04.770Z,17.72
2018-11-21T05:04:04.887Z,17.73
2018-11-21T05:05:04.744Z,17.74
2018-11-21T05:06:04.946Z,17.76
2018-11-21T05:07:05.088Z,17.78
2018-11-21T05:08:04.852Z,17.79
2018-11-21T05:09:04.809Z,17.8
2018-11-21T05:10:04.873Z,17.82
2018-11-21T05:11:04.817Z,17.84
2018-11-21T05:12:05.015Z,17.84
2018-11-21T05:13:04.673Z,17.86
2018-11-21T05:14:05.084Z,17.88
2018-11-21T05:15:04.836Z,17.89
2018-11-21T05:16:05.158Z,17.91
2018-11-21T05:17:05.238Z,17.93
2018-11-21T05:18:04.819Z,17.93
2018-11-21T05:19:04.924Z,17.95
2018-11-21T05:20:04.653Z,17.96
2018-11-21T05:21:04.824Z,17.99
2018-11-21T05:22:05.039Z,17.99
2018-11-21T05:23:04.757Z,18.01
2018-11-21T05:24:05.203Z,18.03
2018-11-21T05:25:05.413Z,18.04
2018-11-21T05:26:05.060Z,18.05
2018-11-21T05:27:04.801Z,18.07
2018-11-21T05:28:05.279Z,18.09
2018-11-21T05:29:04.673Z,18.1
2018-11-21T05:30:04.781Z,18.11
2018-11-21T05:31:04.951Z,18.13
2018-11-21T05:32:05.038Z,18.14
2018-11-21T05:33:04.996Z,18.15
2018-11-21T05:34:04.931Z,18.16
2018-11-21T05:35:05.166Z,18.17
2018-11-21T05:36:05.557Z,18.18
2018-11-21T05:37:04.939Z,18.19
2018-11-21T05:38:04.898Z,18.2
2018-11-21T05:39:04.966Z,18.21
2018-11-21T05:40:04.803Z,18.21
2018-11-21T05:41:04.759Z,18.22
2018-11-21T05:42:05.226Z,18.23
2018-11-21T05:43:04.873Z,18.24
2018-11-21T05:44:04.840Z,18.24
2018-11-21T05:45:04.788Z,18.25
2018-11-21T05:46:04.910Z,18.25
2018-11-21T05:47:04.756Z,18.26
2018-11-21T05:48:05.053Z,18.26
2018-11-21T05:49:04.763Z,18.27
2018-11-21T05:50:04.689Z,18.27
2018-11-21T05:51:04.690Z,18.28
2018-11-21T05:52:04.693Z,18.29
2018-11-21T05:53:05.145Z,18.29
2018-11-21T05:54:04.804Z,18.29
2018-11-21T05:55:04.868Z,18.29
2018-11-21T05:56:05.218Z,18.29
2018-11-21T05:57:05.123Z,18.29
2018-11-21T05:58:05.139Z,18.3
2018-11-21T05:59:04.753Z,18.29
2018-11-21T06:00:04.625Z,18.3
2018-11-21T06:01:04.801Z,18.3
2018-11-21T06:02:05.013Z,18.3
2018-11-21T06:03:04.706Z,18.31
2018-11-21T06:04:04.867Z,18.31
2018-11-21T06:05:04.734Z,18.31
2018-11-21T06:06:09.831Z,18.31
2018-11-21T06:07:04.971Z,18.31
2018-11-21T06:08:04.609Z,18.31
2018-11-21T06:09:05.320Z,18.31
2018-11-21T06:10:04.749Z,18.31
2018-11-21T06:11:05.127Z,18.31
2018-11-21T06:12:04.733Z,18.31
2018-11-21T06:13:04.835Z,18.3
2018-11-21T06:14:05.063Z,18.31
2018-11-21T06:15:05.153Z,18.31
2018-11-21T06:16:04.719Z,18.32
2018-11-21T06:17:05.126Z,18.31
2018-11-21T06:18:04.936Z,18.34
2018-11-21T06:19:04.877Z,18.33
2018-11-21T06:20:04.769Z,18.33
2018-11-21T06:21:04.649Z,18.34
2018-11-21T06:22:05.016Z,18.35
2018-11-21T06:23:04.636Z,18.35
2018-11-21T06:24:04.665Z,18.36
2018-11-21T06:25:04.961Z,18.39
2018-11-21T06:26:05.560Z,18.37
2018-11-21T06:27:04.858Z,18.37
2018-11-21T06:28:04.748Z,18.37
2018-11-21T06:29:05.296Z,18.36
2018-11-21T06:30:04.760Z,18.36
2018-11-21T06:31:04.671Z,18.36
2018-11-21T06:32:04.694Z,18.36
2018-11-21T06:33:04.759Z,18.35
2018-11-21T06:34:04.898Z,18.36
2018-11-21T06:35:04.748Z,18.35
2018-11-21T06:36:05.030Z,18.35
2018-11-21T06:37:04.721Z,18.34
2018-11-21T06:38:04.814Z,18.35
2018-11-21T06:39:04.635Z,18.35
2018-11-21T06:40:04.812Z,18.34
2018-11-21T06:41:04.886Z,18.35
2018-11-21T06:42:04.612Z,18.34
2018-11-21T06:43:04.758Z,18.34
2018-11-21T06:44:04.833Z,18.34
2018-11-21T06:45:04.868Z,18.34
2018-11-21T06:46:04.911Z,18.34
2018-11-21T06:47:04.906Z,18.34
2018-11-21T06:48:04.963Z,18.33
2018-11-21T06:49:05.193Z,18.34
2018-11-21T06:50:05.017Z,18.33
2018-11-21T06:51:04.893Z,18.33
2018-11-21T06:52:04.672Z,18.34
2018-11-21T06:53:05.642Z,18.33
2018-11-21T06:54:05.106Z,18.33
2018-11-21T06:55:04.989Z,18.31
2018-11-21T06:56:04.829Z,18.31
2018-11-21T06:57:05.183Z,18.31
2018-11-21T06:58:05.063Z,18.31
2018-11-21T06:59:05.269Z,18.31
2018-11-21T07:00:04.956Z,18.31
2018-11-21T07:01:04.986Z,18.3
2018-11-21T07:02:04.780Z,18.3
2018-11-21T07:03:04.626Z,18.3
2018-11-21T07:04:04.762Z,18.3
2018-11-21T07:05:04.873Z,18.3
2018-11-21T07:06:05.143Z,18.3
2018-11-21T07:07:04.880Z,18.3
2018-11-21T07:08:04.833Z,18.29
2018-11-21T07:09:04.521Z,18.3
2018-11-21T07:10:04.745Z,18.29
2018-11-21T07:11:05.235Z,18.28
2018-11-21T07:12:04.745Z,18.27
2018-11-21T07:13:05.331Z,18.28
2018-11-21T07:14:07.169Z,18.28
2018-11-21T07:15:04.859Z,18.28
2018-11-21T07:16:05.041Z,18.28
2018-11-21T07:17:04.924Z,18.27
2018-11-21T07:18:04.625Z,18.27
2018-11-21T07:19:04.889Z,18.27
2018-11-21T07:20:05.270Z,18.28
2018-11-21T07:21:04.905Z,18.28
2018-11-21T07:22:04.960Z,18.27
2018-11-21T07:23:05.140Z,18.28
2018-11-21T07:24:04.672Z,18.27
2018-11-21T07:25:05.043Z,18.28
2018-11-21T07:26:04.951Z,18.28
2018-11-21T07:27:04.747Z,18.28
2018-11-21T07:28:04.820Z,18.27
2018-11-21T07:29:04.707Z,18.27
2018-11-21T07:30:05.270Z,18.28
2018-11-21T07:31:05.618Z,18.28
2018-11-21T07:32:05.664Z,18.28
2018-11-21T07:33:04.716Z,18.28
2018-11-21T07:34:04.765Z,18.28
2018-11-21T07:35:05.029Z,18.29
2018-11-21T07:36:05.026Z,18.29
2018-11-21T07:37:05.038Z,18.29
2018-11-21T07:38:04.913Z,18.29
2018-11-21T07:39:04.798Z,18.3
2018-11-21T07:40:04.731Z,18.3
2018-11-21T07:41:04.765Z,18.3
2018-11-21T07:42:05.075Z,18.3
2018-11-21T07:43:04.863Z,18.3
2018-11-21T07:44:04.716Z,18.31
2018-11-21T07:45:05.041Z,18.31
2018-11-21T07:46:04.876Z,18.31
2018-11-21T07:47:04.814Z,18.31
2018-11-21T07:48:05.043Z,18.32
2018-11-21T07:49:04.807Z,18.32
2018-11-21T07:50:04.937Z,18.32
2018-11-21T07:51:04.925Z,18.33
2018-11-21T07:52:05.045Z,18.32
2018-11-21T07:53:04.753Z,18.32
2018-11-21T07:54:04.643Z,18.32
2018-11-21T07:55:04.810Z,18.33
2018-11-21T07:56:04.566Z,18.33
2018-11-21T07:57:05.066Z,18.34
2018-11-21T07:58:04.719Z,18.34
2018-11-21T07:59:04.846Z,18.34
2018-11-21T08:00:04.924Z,18.34
2018-11-21T08:01:05.116Z,18.34
2018-11-21T08:02:04.705Z,18.35
2018-11-21T08:03:05.018Z,18.35
2018-11-21T08:04:04.740Z,18.34
2018-11-21T08:05:04.895Z,18.34
2018-11-21T08:06:04.821Z,18.36
2018-11-21T08:07:04.609Z,18.35
2018-11-21T08:08:04.726Z,18.35
2018-11-21T08:09:04.752Z,18.36
2018-11-21T08:10:04.968Z,18.36
2018-11-21T08:11:04.960Z,18.35
2018-11-21T08:12:04.799Z,18.36
2018-11-21T08:13:04.667Z,18.35
2018-11-21T08:14:04.928Z,18.35
2018-11-21T08:15:04.880Z,18.36
2018-11-21T08:16:04.603Z,18.36
2018-11-21T08:17:04.634Z,18.37
2018-11-21T08:18:04.764Z,18.36
2018-11-21T08:19:04.621Z,18.37
2018-11-21T08:20:04.928Z,18.36
2018-11-21T08:21:05.223Z,18.36
2018-11-21T08:22:04.949Z,18.37
2018-11-21T08:23:05.172Z,18.36
2018-11-21T08:24:04.693Z,18.36
2018-11-21T08:25:04.654Z,18.37
2018-11-21T08:26:04.897Z,18.37
2018-11-21T08:27:04.882Z,18.37
2018-11-21T08:28:05.557Z,18.36
2018-11-21T08:29:05.108Z,18.37
2018-11-21T08:30:05.040Z,18.35
2018-11-21T08:31:04.721Z,18.36
2018-11-21T08:32:05.108Z,18.36
2018-11-21T08:33:04.754Z,18.37
2018-11-21T08:34:04.746Z,18.36
2018-11-21T08:35:04.911Z,18.35
2018-11-21T08:36:05.757Z,18.37
2018-11-21T08:37:05.015Z,18.36
2018-11-21T08:38:04.870Z,18.35
2018-11-21T08:39:04.869Z,18.35
2018-11-21T08:40:04.997Z,18.36
2018-11-21T08:41:05.411Z,18.36
2018-11-21T08:42:04.801Z,18.36
2018-11-21T08:43:04.793Z,18.36
2018-11-21T08:44:04.759Z,18.36
2018-11-21T08:45:04.829Z,18.35
2018-11-21T08:46:04.790Z,18.36
2018-11-21T08:47:05.119Z,18.36
2018-11-21T08:48:04.652Z,18.36
2018-11-21T08:49:04.903Z,18.35
2018-11-21T08:50:04.764Z,18.35
2018-11-21T08:51:04.942Z,18.35
2018-11-21T08:52:04.756Z,18.35
2018-11-21T08:53:05.266Z,18.36
2018-11-21T08:54:04.555Z,18.34
2018-11-21T08:55:08.758Z,18.34
2018-11-21T08:56:04.962Z,18.34
2018-11-21T08:57:04.781Z,18.34
2018-11-21T08:58:04.785Z,18.34
2018-11-21T08:59:04.742Z,18.33
2018-11-21T09:00:04.653Z,18.34
2018-11-21T09:01:04.802Z,18.33
2018-11-21T09:02:04.610Z,18.34
2018-11-21T09:03:04.629Z,18.33
2018-11-21T09:04:04.630Z,18.33
2018-11-21T09:05:04.762Z,18.33
2018-11-21T09:06:05.167Z,18.32
2018-11-21T09:07:04.695Z,18.32
2018-11-21T09:08:05.164Z,18.32
2018-11-21T09:09:04.911Z,18.32
2018-11-21T09:10:04.889Z,18.32
2018-11-21T09:11:05.166Z,18.32
2018-11-21T09:12:08.639Z,18.31
2018-11-21T09:13:04.685Z,18.32
2018-11-21T09:14:05.007Z,18.32
2018-11-21T09:15:04.918Z,18.32
2018-11-21T09:16:05.033Z,18.32
2018-11-21T09:17:04.938Z,18.31
2018-11-21T09:18:04.745Z,18.32
2018-11-21T09:19:04.784Z,18.31
2018-11-21T09:20:04.948Z,18.31
2018-11-21T09:21:04.743Z,18.31
2018-11-21T09:22:04.749Z,18.3
2018-11-21T09:23:05.067Z,18.31
2018-11-21T09:24:04.835Z,18.31
2018-11-21T09:25:05.509Z,18.31
2018-11-21T09:26:04.887Z,18.3
2018-11-21T09:27:04.637Z,18.3
2018-11-21T09:28:04.830Z,18.3
2018-11-21T09:29:04.603Z,18.31
2018-11-21T09:30:04.717Z,18.3
2018-11-21T09:31:04.924Z,18.29
2018-11-21T09:32:04.662Z,18.3
2018-11-21T09:33:04.833Z,18.3
2018-11-21T09:34:04.676Z,18.29
2018-11-21T09:35:04.807Z,18.3
2018-11-21T09:36:04.876Z,18.3
2018-11-21T09:37:04.741Z,18.29
2018-11-21T09:38:04.648Z,18.3
2018-11-21T09:39:04.667Z,18.29
2018-11-21T09:40:04.902Z,18.29
2018-11-21T09:41:04.918Z,18.29
2018-11-21T09:42:04.828Z,18.29
2018-11-21T09:43:04.785Z,18.29
2018-11-21T09:44:04.755Z,18.29
2018-11-21T09:45:04.644Z,18.29
2018-11-21T09:46:04.767Z,18.29
2018-11-21T09:47:04.697Z,18.29
2018-11-21T09:48:04.757Z,18.29
2018-11-21T09:49:04.658Z,18.29
2018-11-21T09:50:04.657Z,18.29
2018-11-21T09:51:04.579Z,18.3
2018-11-21T09:52:04.729Z,18.29
2018-11-21T09:53:04.725Z,18.3
2018-11-21T09:54:04.629Z,18.3
2018-11-21T09:55:04.795Z,18.3
2018-11-21T09:56:04.688Z,18.3
2018-11-21T09:57:04.757Z,18.31
2018-11-21T09:58:04.842Z,18.3
2018-11-21T09:59:04.809Z,18.31
2018-11-21T10:00:04.702Z,18.31
2018-11-21T10:01:04.742Z,18.31
2018-11-21T10:02:04.872Z,18.31
2018-11-21T10:03:04.699Z,18.31
2018-11-21T10:04:05.671Z,18.32
2018-11-21T10:05:04.627Z,18.31
2018-11-21T10:06:04.698Z,18.32
2018-11-21T10:07:04.816Z,18.33
2018-11-21T10:08:04.888Z,18.32
2018-11-21T10:09:05.278Z,18.32
2018-11-21T10:10:05.014Z,18.33
2018-11-21T10:11:05.208Z,18.33
2018-11-21T10:12:04.874Z,18.33
2018-11-21T10:13:04.956Z,18.33
2018-11-21T10:14:04.818Z,18.33
2018-11-21T10:15:04.873Z,18.32
2018-11-21T10:16:04.575Z,18.33
2018-11-21T10:17:04.721Z,18.34
2018-11-21T10:18:05.044Z,18.33
2018-11-21T10:19:04.668Z,18.34
2018-11-21T10:20:04.839Z,18.34
2018-11-21T10:21:04.870Z,18.34
2018-11-21T10:22:04.884Z,18.34
2018-11-21T10:23:04.775Z,18.34
2018-11-21T10:24:04.802Z,18.34
2018-11-21T10:25:04.582Z,18.35
2018-11-21T10:26:04.661Z,18.35
2018-11-21T10:27:04.801Z,18.35
2018-11-21T10:28:04.877Z,18.35
2018-11-21T10:29:05.649Z,18.35
2018-11-21T10:30:04.632Z,18.35
2018-11-21T10:31:04.861Z,18.35
2018-11-21T10:32:04.639Z,18.35
2018-11-21T10:33:04.857Z,18.34
2018-11-21T10:34:04.649Z,18.34
2018-11-21T10:35:04.864Z,18.35
2018-11-21T10:36:04.770Z,18.35
2018-11-21T10:37:05.260Z,18.36
2018-11-21T10:38:04.560Z,18.35
2018-11-21T10:39:04.686Z,18.36
2018-11-21T10:40:04.580Z,18.35
2018-11-21T10:41:04.650Z,18.35
2018-11-21T10:42:04.788Z,18.35
2018-11-21T10:43:05.918Z,18.35
2018-11-21T10:44:04.746Z,18.35
2018-11-21T10:45:05.038Z,18.35
2018-11-21T10:46:04.777Z,18.34
2018-11-21T10:47:04.799Z,18.35
2018-11-21T10:48:04.653Z,18.36
2018-11-21T10:49:04.862Z,18.35
2018-11-21T10:50:05.093Z,18.35
2018-11-21T10:51:04.889Z,18.35
2018-11-21T10:52:04.897Z,18.35
2018-11-21T10:53:04.683Z,18.35
2018-11-21T10:54:04.876Z,18.36
2018-11-21T10:55:04.720Z,18.36
2018-11-21T10:56:04.788Z,18.35
2018-11-21T10:57:04.578Z,18.35
2018-11-21T10:58:05.136Z,18.36
2018-11-21T10:59:04.903Z,18.35
2018-11-21T11:00:04.657Z,18.36
2018-11-21T11:01:04.708Z,18.35
2018-11-21T11:02:04.944Z,18.36
2018-11-21T11:03:04.578Z,18.35
2018-11-21T11:04:04.754Z,18.35
2018-11-21T11:05:04.666Z,18.35
2018-11-21T11:06:04.630Z,18.37
2018-11-21T11:07:04.804Z,18.36
2018-11-21T11:08:04.685Z,18.35
2018-11-21T11:09:04.667Z,18.35
2018-11-21T11:10:04.755Z,18.36
2018-11-21T11:11:04.809Z,18.35
2018-11-21T11:12:04.579Z,18.36
2018-11-21T11:13:04.807Z,18.35
2018-11-21T11:14:04.847Z,18.35
2018-11-21T11:15:04.702Z,18.35
2018-11-21T11:16:04.577Z,18.36
2018-11-21T11:17:04.486Z,18.36
2018-11-21T11:18:04.498Z,18.35
2018-11-21T11:19:04.682Z,18.36
2018-11-21T11:20:08.513Z,18.36
2018-11-21T11:21:04.526Z,18.35
2018-11-21T11:22:04.836Z,18.36
2018-11-21T11:23:04.599Z,18.35
2018-11-21T11:24:04.665Z,18.35
2018-11-21T11:25:04.867Z,18.35
2018-11-21T11:26:04.602Z,18.35
2018-11-21T11:27:04.663Z,18.35
2018-11-21T11:28:04.608Z,18.35
2018-11-21T11:29:04.754Z,18.34
2018-11-21T11:30:04.600Z,18.35
2018-11-21T11:31:04.698Z,18.35
2018-11-21T11:32:04.990Z,18.36
2018-11-21T11:33:04.872Z,18.35
2018-11-21T11:34:04.525Z,18.36
2018-11-21T11:35:04.825Z,18.35
2018-11-21T11:36:04.455Z,18.35
2018-11-21T11:37:04.620Z,18.35
2018-11-21T11:38:04.868Z,18.35
2018-11-21T11:39:04.671Z,18.35
2018-11-21T11:40:04.820Z,18.35
2018-11-21T11:41:04.577Z,18.35
2018-11-21T11:42:04.698Z,18.35
2018-11-21T11:43:04.512Z,18.35
2018-11-21T11:44:04.640Z,18.34
2018-11-21T11:45:04.857Z,18.35
2018-11-21T11:46:04.667Z,18.36
2018-11-21T11:47:04.748Z,18.35
2018-11-21T11:48:04.778Z,18.35
2018-11-21T11:49:04.901Z,18.35
2018-11-21T11:50:04.542Z,18.35
2018-11-21T11:51:04.693Z,18.35
2018-11-21T11:52:04.570Z,18.35
2018-11-21T11:53:04.587Z,18.35
2018-11-21T11:54:05.124Z,18.35
2018-11-21T11:55:04.696Z,18.35
2018-11-21T11:56:04.801Z,18.35
2018-11-21T11:57:04.854Z,18.35
2018-11-21T11:58:04.718Z,18.35
2018-11-21T11:59:04.601Z,18.35
2018-11-21T12:00:04.628Z,18.35
2018-11-21T12:01:04.761Z,18.35
2018-11-21T12:02:04.623Z,18.34
2018-11-21T12:03:05.205Z,18.35
2018-11-21T12:04:04.689Z,18.35
2018-11-21T12:05:04.765Z,18.35
2018-11-21T12:06:04.880Z,18.34
2018-11-21T12:07:04.585Z,18.34
2018-11-21T12:08:04.604Z,18.35
2018-11-21T12:09:05.137Z,18.34
2018-11-21T12:10:04.942Z,18.34
2018-11-21T12:11:04.642Z,18.35
2018-11-21T12:12:05.103Z,18.34
2018-11-21T12:13:04.657Z,18.34
2018-11-21T12:14:04.772Z,18.34
2018-11-21T12:15:04.536Z,18.34
2018-11-21T12:16:04.887Z,18.34
2018-11-21T12:17:04.950Z,18.34
2018-11-21T12:18:04.904Z,18.34
2018-11-21T12:19:04.581Z,18.34
2018-11-21T12:20:04.643Z,18.34
2018-11-21T12:21:04.617Z,18.34
2018-11-21T12:22:04.667Z,18.34
2018-11-21T12:23:04.900Z,18.33
2018-11-21T12:24:05.240Z,18.34
2018-11-21T12:25:04.636Z,18.34
2018-11-21T12:26:10.316Z,18.33
2018-11-21T12:27:05.221Z,18.33
2018-11-21T12:28:04.930Z,18.33
2018-11-21T12:29:04.658Z,18.33
2018-11-21T12:30:05.168Z,18.33
2018-11-21T12:31:04.814Z,18.32
2018-11-21T12:32:04.756Z,18.33
2018-11-21T12:33:04.652Z,18.32
2018-11-21T12:34:04.619Z,18.33
2018-11-21T12:35:04.534Z,18.32
2018-11-21T12:36:04.542Z,18.33
2018-11-21T12:37:04.447Z,18.33
2018-11-21T12:38:04.570Z,18.32
2018-11-21T12:39:04.685Z,18.32
2018-11-21T12:40:04.777Z,18.32
2018-11-21T12:41:04.960Z,18.32
2018-11-21T12:42:04.862Z,18.32
2018-11-21T12:43:05.073Z,18.33
2018-11-21T12:44:04.599Z,18.32
2018-11-21T12:45:04.698Z,18.32
2018-11-21T12:46:04.683Z,18.32
2018-11-21T12:47:04.854Z,18.32
2018-11-21T12:48:04.988Z,18.32
2018-11-21T12:49:04.641Z,18.33
2018-11-21T12:50:04.643Z,18.33
2018-11-21T12:51:04.512Z,18.33
2018-11-21T12:52:04.655Z,18.33
2018-11-21T12:53:04.664Z,18.33
2018-11-21T12:54:04.619Z,18.32
2018-11-21T12:55:04.687Z,18.33